sensor_id;sensor_type;location;lat;lon;timestamp;P1;durP1;ratioP1;P2;durP2;ratioP2
30149;SDS011;16962;48.646;9.026;2024-03-23T00:54:21;4.93;;;3.30;;
30149;SDS011;16962;48.646;9.026;2024-03-23T00:57:07;5.85;;;3.33;;
30149;SDS011;16962;48.646;9.026;2024-03-23T00:59:54;6.95;;;3.75;;
30149;SDS011;16962;48.646;9.026;2024-03-23T01:02:40;8.32;;;3.83;;
30149;SDS011;16962;48.646;9.026;2024-03-23T01:05:26;6.47;;;3.40;;
30149;SDS011;16962;48.646;9.026;2024-03-23T01:08:13;5.05;;;3.78;;
30149;SDS011;16962;48.646;9.026;2024-03-23T01:10:59;6.80;;;3.38;;
30149;SDS011;16962;48.646;9.026;2024-03-23T01:13:47;4.55;;;3.30;;
30149;SDS011;16962;48.646;9.026;2024-03-23T01:16:33;5.28;;;3.40;;
30149;SDS011;16962;48.646;9.026;2024-03-23T01:19:19;5.53;;;3.47;;
30149;SDS011;16962;48.646;9.026;2024-03-23T01:22:06;5.40;;;3.22;;
30149;SDS011;16962;48.646;9.026;2024-03-23T01:24:52;5.63;;;4.05;;
30149;SDS011;16962;48.646;9.026;2024-03-23T01:27:39;7.47;;;3.20;;
30149;SDS011;16962;48.646;9.026;2024-03-23T01:30:25;7.25;;;3.80;;
30149;SDS011;16962;48.646;9.026;2024-03-23T01:33:11;8.70;;;3.22;;
30149;SDS011;16962;48.646;9.026;2024-03-23T01:35:57;4.72;;;3.50;;
30149;SDS011;16962;48.646;9.026;2024-03-23T01:38:44;5.50;;;3.10;;
30149;SDS011;16962;48.646;9.026;2024-03-23T01:41:30;6.57;;;3.30;;
30149;SDS011;16962;48.646;9.026;2024-03-23T01:44:17;5.05;;;3.50;;
30149;SDS011;16962;48.646;9.026;2024-03-23T01:47:03;6.30;;;2.90;;
30149;SDS011;16962;48.646;9.026;2024-03-23T01:49:50;3.85;;;3.20;;
30149;SDS011;16962;48.646;9.026;2024-03-23T01:52:37;9.35;;;3.80;;
30149;SDS011;16962;48.646;9.026;2024-03-23T01:55:23;7.30;;;3.60;;
30149;SDS011;16962;48.646;9.026;2024-03-23T01:58:10;5.78;;;3.22;;
30149;SDS011;16962;48.646;9.026;2024-03-23T02:00:57;4.75;;;3.28;;
30149;SDS011;16962;48.646;9.026;2024-03-23T02:03:43;5.20;;;3.00;;
30149;SDS011;16962;48.646;9.026;2024-03-23T02:06:30;7.28;;;3.50;;
30149;SDS011;16962;48.646;9.026;2024-03-23T02:09:16;6.13;;;3.53;;
30149;SDS011;16962;48.646;9.026;2024-03-23T02:12:03;6.60;;;2.83;;
30149;SDS011;16962;48.646;9.026;2024-03-23T02:14:50;3.85;;;3.10;;
30149;SDS011;16962;48.646;9.026;2024-03-23T02:17:36;6.47;;;3.22;;
30149;SDS011;16962;48.646;9.026;2024-03-23T02:20:22;4.55;;;3.10;;
30149;SDS011;16962;48.646;9.026;2024-03-23T02:23:15;6.18;;;3.00;;
30149;SDS011;16962;48.646;9.026;2024-03-23T02:26:02;5.47;;;3.42;;
30149;SDS011;16962;48.646;9.026;2024-03-23T02:28:48;5.25;;;2.78;;
30149;SDS011;16962;48.646;9.026;2024-03-23T02:31:35;6.13;;;3.38;;
30149;SDS011;16962;48.646;9.026;2024-03-23T02:34:21;4.43;;;3.00;;
30149;SDS011;16962;48.646;9.026;2024-03-23T02:37:11;5.90;;;3.42;;
30149;SDS011;16962;48.646;9.026;2024-03-23T02:39:58;3.90;;;2.97;;
30149;SDS011;16962;48.646;9.026;2024-03-23T02:42:44;4.57;;;3.17;;
30149;SDS011;16962;48.646;9.026;2024-03-23T02:45:30;4.60;;;3.42;;
30149;SDS011;16962;48.646;9.026;2024-03-23T02:48:17;4.97;;;3.10;;
30149;SDS011;16962;48.646;9.026;2024-03-23T02:51:03;4.78;;;3.17;;
30149;SDS011;16962;48.646;9.026;2024-03-23T02:53:50;5.72;;;3.33;;
30149;SDS011;16962;48.646;9.026;2024-03-23T02:56:37;6.50;;;3.25;;
30149;SDS011;16962;48.646;9.026;2024-03-23T02:59:23;4.50;;;3.25;;
30149;SDS011;16962;48.646;9.026;2024-03-23T03:02:09;4.90;;;3.40;;
30149;SDS011;16962;48.646;9.026;2024-03-23T03:04:56;5.72;;;3.72;;
30149;SDS011;16962;48.646;9.026;2024-03-23T03:07:44;4.57;;;3.10;;
30149;SDS011;16962;48.646;9.026;2024-03-23T03:10:31;5.20;;;3.13;;
30149;SDS011;16962;48.646;9.026;2024-03-23T03:13:20;7.78;;;3.70;;
30149;SDS011;16962;48.646;9.026;2024-03-23T03:16:10;5.68;;;3.72;;
30149;SDS011;16962;48.646;9.026;2024-03-23T03:18:57;6.03;;;3.35;;
30149;SDS011;16962;48.646;9.026;2024-03-23T03:21:43;7.75;;;3.72;;
30149;SDS011;16962;48.646;9.026;2024-03-23T03:24:29;4.55;;;3.40;;
30149;SDS011;16962;48.646;9.026;2024-03-23T03:27:16;6.88;;;3.85;;
30149;SDS011;16962;48.646;9.026;2024-03-23T03:30:02;5.25;;;3.50;;
30149;SDS011;16962;48.646;9.026;2024-03-23T03:32:54;5.70;;;3.90;;
30149;SDS011;16962;48.646;9.026;2024-03-23T03:35:41;5.72;;;3.35;;
30149;SDS011;16962;48.646;9.026;2024-03-23T03:38:27;6.97;;;4.03;;
30149;SDS011;16962;48.646;9.026;2024-03-23T03:41:13;6.57;;;3.45;;
30149;SDS011;16962;48.646;9.026;2024-03-23T03:44:00;6.80;;;3.88;;
30149;SDS011;16962;48.646;9.026;2024-03-23T03:46:47;9.02;;;4.20;;
30149;SDS011;16962;48.646;9.026;2024-03-23T03:49:34;5.88;;;3.75;;
30149;SDS011;16962;48.646;9.026;2024-03-23T03:52:20;5.03;;;3.90;;
30149;SDS011;16962;48.646;9.026;2024-03-23T03:55:13;5.30;;;3.72;;
30149;SDS011;16962;48.646;9.026;2024-03-23T03:58:00;6.50;;;3.90;;
30149;SDS011;16962;48.646;9.026;2024-03-23T04:00:47;6.75;;;3.58;;
30149;SDS011;16962;48.646;9.026;2024-03-23T04:03:33;7.60;;;3.70;;
30149;SDS011;16962;48.646;9.026;2024-03-23T04:06:20;6.13;;;4.00;;
30149;SDS011;16962;48.646;9.026;2024-03-23T04:09:06;8.48;;;4.03;;
30149;SDS011;16962;48.646;9.026;2024-03-23T04:11:53;5.65;;;3.60;;
30149;SDS011;16962;48.646;9.026;2024-03-23T04:14:39;4.63;;;3.50;;
30149;SDS011;16962;48.646;9.026;2024-03-23T04:17:26;4.97;;;3.10;;
30149;SDS011;16962;48.646;9.026;2024-03-23T04:20:17;5.70;;;3.28;;
30149;SDS011;16962;48.646;9.026;2024-03-23T04:23:03;6.45;;;3.38;;
30149;SDS011;16962;48.646;9.026;2024-03-23T04:25:50;5.47;;;3.20;;
30149;SDS011;16962;48.646;9.026;2024-03-23T04:28:39;8.75;;;3.30;;
30149;SDS011;16962;48.646;9.026;2024-03-23T04:31:25;6.18;;;3.20;;
30149;SDS011;16962;48.646;9.026;2024-03-23T04:34:11;6.13;;;3.28;;
30149;SDS011;16962;48.646;9.026;2024-03-23T04:36:58;5.25;;;3.17;;
30149;SDS011;16962;48.646;9.026;2024-03-23T04:39:45;5.65;;;3.50;;
30149;SDS011;16962;48.646;9.026;2024-03-23T04:42:31;5.80;;;3.15;;
30149;SDS011;16962;48.646;9.026;2024-03-23T04:45:17;5.68;;;3.20;;
30149;SDS011;16962;48.646;9.026;2024-03-23T04:48:04;7.25;;;3.35;;
30149;SDS011;16962;48.646;9.026;2024-03-23T04:50:54;6.38;;;3.72;;
30149;SDS011;16962;48.646;9.026;2024-03-23T04:56:29;7.65;;;4.13;;
30149;SDS011;16962;48.646;9.026;2024-03-23T04:59:17;9.38;;;4.80;;
30149;SDS011;16962;48.646;9.026;2024-03-23T05:02:04;9.50;;;5.63;;
30149;SDS011;16962;48.646;9.026;2024-03-23T05:04:51;8.48;;;5.80;;
30149;SDS011;16962;48.646;9.026;2024-03-23T05:07:37;11.02;;;7.32;;
30149;SDS011;16962;48.646;9.026;2024-03-23T05:10:23;14.07;;;8.73;;
30149;SDS011;16962;48.646;9.026;2024-03-23T05:13:10;16.02;;;10.25;;
30149;SDS011;16962;48.646;9.026;2024-03-23T05:15:56;14.05;;;9.88;;
30149;SDS011;16962;48.646;9.026;2024-03-23T05:18:42;18.73;;;11.18;;
30149;SDS011;16962;48.646;9.026;2024-03-23T05:21:29;19.40;;;12.50;;
30149;SDS011;16962;48.646;9.026;2024-03-23T05:24:15;20.73;;;13.85;;
30149;SDS011;16962;48.646;9.026;2024-03-23T05:27:02;25.08;;;14.57;;
30149;SDS011;16962;48.646;9.026;2024-03-23T05:29:48;22.13;;;15.82;;
30149;SDS011;16962;48.646;9.026;2024-03-23T05:32:34;22.27;;;14.68;;
30149;SDS011;16962;48.646;9.026;2024-03-23T05:35:21;24.10;;;16.58;;
30149;SDS011;16962;48.646;9.026;2024-03-23T05:38:07;22.17;;;14.73;;
30149;SDS011;16962;48.646;9.026;2024-03-23T05:41:02;27.45;;;16.13;;
30149;SDS011;16962;48.646;9.026;2024-03-23T05:43:49;27.20;;;17.13;;
30149;SDS011;16962;48.646;9.026;2024-03-23T05:46:35;22.05;;;14.80;;
30149;SDS011;16962;48.646;9.026;2024-03-23T05:49:21;25.73;;;14.90;;
30149;SDS011;16962;48.646;9.026;2024-03-23T05:52:08;20.00;;;13.50;;
30149;SDS011;16962;48.646;9.026;2024-03-23T05:54:55;22.67;;;13.55;;
30149;SDS011;16962;48.646;9.026;2024-03-23T05:57:41;18.50;;;12.63;;
30149;SDS011;16962;48.646;9.026;2024-03-23T06:00:28;18.48;;;12.25;;
30149;SDS011;16962;48.646;9.026;2024-03-23T06:03:14;19.83;;;12.00;;
30149;SDS011;16962;48.646;9.026;2024-03-23T06:06:01;17.73;;;11.45;;
30149;SDS011;16962;48.646;9.026;2024-03-23T06:08:47;16.73;;;10.70;;
30149;SDS011;16962;48.646;9.026;2024-03-23T06:11:33;11.18;;;8.00;;
30149;SDS011;16962;48.646;9.026;2024-03-23T06:14:20;11.23;;;6.25;;
30149;SDS011;16962;48.646;9.026;2024-03-23T06:17:06;9.02;;;6.07;;
30149;SDS011;16962;48.646;9.026;2024-03-23T06:19:53;8.80;;;6.07;;
30149;SDS011;16962;48.646;9.026;2024-03-23T06:22:40;5.90;;;4.50;;
30149;SDS011;16962;48.646;9.026;2024-03-23T06:25:26;4.75;;;3.17;;
30149;SDS011;16962;48.646;9.026;2024-03-23T06:28:13;7.95;;;3.55;;
30149;SDS011;16962;48.646;9.026;2024-03-23T06:31:00;2.95;;;2.35;;
30149;SDS011;16962;48.646;9.026;2024-03-23T06:33:46;2.55;;;2.10;;
30149;SDS011;16962;48.646;9.026;2024-03-23T06:36:33;4.22;;;2.58;;
30149;SDS011;16962;48.646;9.026;2024-03-23T06:39:19;3.00;;;2.30;;
30149;SDS011;16962;48.646;9.026;2024-03-23T06:42:06;2.63;;;2.03;;
30149;SDS011;16962;48.646;9.026;2024-03-23T06:44:53;3.72;;;2.78;;
30149;SDS011;16962;48.646;9.026;2024-03-23T06:47:40;3.47;;;2.72;;
30149;SDS011;16962;48.646;9.026;2024-03-23T06:50:26;2.33;;;2.10;;
30149;SDS011;16962;48.646;9.026;2024-03-23T06:53:14;2.40;;;1.85;;
30149;SDS011;16962;48.646;9.026;2024-03-23T06:56:00;3.17;;;1.70;;
30149;SDS011;16962;48.646;9.026;2024-03-23T06:58:47;3.13;;;1.20;;
30149;SDS011;16962;48.646;9.026;2024-03-23T07:01:33;1.40;;;1.30;;
30149;SDS011;16962;48.646;9.026;2024-03-23T07:04:20;2.05;;;1.23;;
30149;SDS011;16962;48.646;9.026;2024-03-23T07:07:07;1.80;;;1.50;;
30149;SDS011;16962;48.646;9.026;2024-03-23T07:09:53;1.48;;;1.10;;
30149;SDS011;16962;48.646;9.026;2024-03-23T07:12:39;1.17;;;1.10;;
30149;SDS011;16962;48.646;9.026;2024-03-23T07:15:26;1.08;;;0.98;;
30149;SDS011;16962;48.646;9.026;2024-03-23T07:18:12;0.90;;;0.90;;
30149;SDS011;16962;48.646;9.026;2024-03-23T07:20:58;0.70;;;0.70;;
30149;SDS011;16962;48.646;9.026;2024-03-23T07:23:45;3.13;;;0.80;;
30149;SDS011;16962;48.646;9.026;2024-03-23T07:26:31;0.77;;;0.77;;
30149;SDS011;16962;48.646;9.026;2024-03-23T07:29:17;0.63;;;0.63;;
30149;SDS011;16962;48.646;9.026;2024-03-23T07:32:04;0.63;;;0.55;;
30149;SDS011;16962;48.646;9.026;2024-03-23T07:34:51;0.63;;;0.63;;
30149;SDS011;16962;48.646;9.026;2024-03-23T07:37:37;0.98;;;0.80;;
30149;SDS011;16962;48.646;9.026;2024-03-23T07:40:24;0.63;;;0.63;;
30149;SDS011;16962;48.646;9.026;2024-03-23T07:43:10;0.70;;;0.70;;
30149;SDS011;16962;48.646;9.026;2024-03-23T07:45:57;1.90;;;0.80;;
30149;SDS011;16962;48.646;9.026;2024-03-23T07:48:44;0.60;;;0.60;;
30149;SDS011;16962;48.646;9.026;2024-03-23T07:51:30;0.70;;;0.70;;
30149;SDS011;16962;48.646;9.026;2024-03-23T07:54:17;0.60;;;0.60;;
30149;SDS011;16962;48.646;9.026;2024-03-23T07:57:03;0.70;;;0.70;;
30149;SDS011;16962;48.646;9.026;2024-03-23T07:59:50;0.60;;;0.60;;
30149;SDS011;16962;48.646;9.026;2024-03-23T08:02:37;0.70;;;0.70;;
30149;SDS011;16962;48.646;9.026;2024-03-23T08:05:25;0.73;;;0.70;;
30149;SDS011;16962;48.646;9.026;2024-03-23T08:08:12;10.93;;;3.47;;
30149;SDS011;16962;48.646;9.026;2024-03-23T08:10:58;1.65;;;1.38;;
30149;SDS011;16962;48.646;9.026;2024-03-23T08:13:45;1.23;;;0.90;;
30149;SDS011;16962;48.646;9.026;2024-03-23T08:16:31;0.80;;;0.80;;
30149;SDS011;16962;48.646;9.026;2024-03-23T08:19:17;1.38;;;0.90;;
30149;SDS011;16962;48.646;9.026;2024-03-23T08:22:04;1.80;;;0.95;;
30149;SDS011;16962;48.646;9.026;2024-03-23T08:24:50;1.05;;;0.95;;
30149;SDS011;16962;48.646;9.026;2024-03-23T08:27:37;1.10;;;1.00;;
30149;SDS011;16962;48.646;9.026;2024-03-23T08:30:23;2.95;;;1.10;;
30149;SDS011;16962;48.646;9.026;2024-03-23T08:33:10;3.95;;;1.50;;
30149;SDS011;16962;48.646;9.026;2024-03-23T08:35:57;1.58;;;1.48;;
30149;SDS011;16962;48.646;9.026;2024-03-23T08:38:44;2.20;;;1.20;;
30149;SDS011;16962;48.646;9.026;2024-03-23T08:41:31;3.92;;;2.10;;
30149;SDS011;16962;48.646;9.026;2024-03-23T08:44:18;3.50;;;1.40;;
30149;SDS011;16962;48.646;9.026;2024-03-23T08:47:04;5.07;;;2.25;;
30149;SDS011;16962;48.646;9.026;2024-03-23T08:49:51;2.72;;;1.70;;
30149;SDS011;16962;48.646;9.026;2024-03-23T08:52:37;3.83;;;1.75;;
30149;SDS011;16962;48.646;9.026;2024-03-23T08:55:24;3.67;;;1.77;;
30149;SDS011;16962;48.646;9.026;2024-03-23T08:58:10;4.57;;;2.00;;
30149;SDS011;16962;48.646;9.026;2024-03-23T09:03:50;5.70;;;2.42;;
30149;SDS011;16962;48.646;9.026;2024-03-23T09:06:37;6.28;;;2.80;;
30149;SDS011;16962;48.646;9.026;2024-03-23T09:09:23;8.45;;;3.95;;
30149;SDS011;16962;48.646;9.026;2024-03-23T09:12:09;9.82;;;4.10;;
30149;SDS011;16962;48.646;9.026;2024-03-23T09:14:56;8.02;;;4.18;;
30149;SDS011;16962;48.646;9.026;2024-03-23T09:17:42;7.82;;;3.30;;
30149;SDS011;16962;48.646;9.026;2024-03-23T09:20:29;8.25;;;2.97;;
30149;SDS011;16962;48.646;9.026;2024-03-23T09:23:18;7.05;;;3.05;;
30149;SDS011;16962;48.646;9.026;2024-03-23T09:26:05;7.50;;;3.25;;
30149;SDS011;16962;48.646;9.026;2024-03-23T09:28:54;7.60;;;4.25;;
30149;SDS011;16962;48.646;9.026;2024-03-23T09:31:40;7.80;;;3.70;;
30149;SDS011;16962;48.646;9.026;2024-03-23T09:34:27;9.52;;;3.65;;
30149;SDS011;16962;48.646;9.026;2024-03-23T09:37:13;7.95;;;3.58;;
30149;SDS011;16962;48.646;9.026;2024-03-23T09:39:59;9.90;;;4.30;;
30149;SDS011;16962;48.646;9.026;2024-03-23T09:42:52;10.23;;;4.22;;
30149;SDS011;16962;48.646;9.026;2024-03-23T09:45:39;13.10;;;4.38;;
30149;SDS011;16962;48.646;9.026;2024-03-23T09:48:29;10.95;;;4.63;;
30149;SDS011;16962;48.646;9.026;2024-03-23T09:51:16;10.05;;;4.32;;
30149;SDS011;16962;48.646;9.026;2024-03-23T09:54:02;9.65;;;3.83;;
30149;SDS011;16962;48.646;9.026;2024-03-23T09:56:48;9.20;;;4.68;;
30149;SDS011;16962;48.646;9.026;2024-03-23T09:59:35;9.05;;;5.05;;
30149;SDS011;16962;48.646;9.026;2024-03-23T10:02:21;11.35;;;4.63;;
30149;SDS011;16962;48.646;9.026;2024-03-23T10:05:20;8.77;;;3.30;;
30149;SDS011;16962;48.646;9.026;2024-03-23T10:11:12;6.05;;;3.58;;
30149;SDS011;16962;48.646;9.026;2024-03-23T10:14:01;8.50;;;3.50;;
30149;SDS011;16962;48.646;9.026;2024-03-23T10:16:47;10.27;;;3.67;;
30149;SDS011;16962;48.646;9.026;2024-03-23T10:19:33;10.35;;;3.83;;
30149;SDS011;16962;48.646;9.026;2024-03-23T10:22:20;7.40;;;3.33;;
30149;SDS011;16962;48.646;9.026;2024-03-23T10:25:09;11.82;;;3.90;;
30149;SDS011;16962;48.646;9.026;2024-03-23T10:27:59;8.75;;;3.70;;
30149;SDS011;16962;48.646;9.026;2024-03-23T10:30:49;11.73;;;4.60;;
30149;SDS011;16962;48.646;9.026;2024-03-23T10:33:35;11.55;;;4.28;;
30149;SDS011;16962;48.646;9.026;2024-03-23T10:36:22;8.93;;;3.55;;
30149;SDS011;16962;48.646;9.026;2024-03-23T10:39:10;9.95;;;4.20;;
30149;SDS011;16962;48.646;9.026;2024-03-23T10:41:57;10.07;;;3.95;;
30149;SDS011;16962;48.646;9.026;2024-03-23T10:44:46;10.57;;;4.70;;
30149;SDS011;16962;48.646;9.026;2024-03-23T10:47:33;9.07;;;3.67;;
30149;SDS011;16962;48.646;9.026;2024-03-23T10:50:21;8.77;;;2.90;;
30149;SDS011;16962;48.646;9.026;2024-03-23T10:53:08;6.57;;;3.10;;
30149;SDS011;16962;48.646;9.026;2024-03-23T10:55:55;5.35;;;3.22;;
30149;SDS011;16962;48.646;9.026;2024-03-23T10:58:46;9.65;;;3.28;;
30149;SDS011;16962;48.646;9.026;2024-03-23T11:01:35;9.65;;;3.90;;
30149;SDS011;16962;48.646;9.026;2024-03-23T11:04:36;15.07;;;3.88;;
30149;SDS011;16962;48.646;9.026;2024-03-23T11:10:28;4.82;;;3.10;;
30149;SDS011;16962;48.646;9.026;2024-03-23T11:13:22;14.55;;;4.15;;
30149;SDS011;16962;48.646;9.026;2024-03-23T11:25:29;6.25;;;3.20;;
30149;SDS011;16962;48.646;9.026;2024-03-23T11:28:16;8.07;;;2.60;;
30149;SDS011;16962;48.646;9.026;2024-03-23T11:31:08;9.52;;;4.25;;
30149;SDS011;16962;48.646;9.026;2024-03-23T11:34:03;7.93;;;2.20;;
30149;SDS011;16962;48.646;9.026;2024-03-23T11:36:51;6.75;;;2.50;;
30149;SDS011;16962;48.646;9.026;2024-03-23T11:39:51;9.32;;;2.75;;
30149;SDS011;16962;48.646;9.026;2024-03-23T11:42:37;9.18;;;2.58;;
30149;SDS011;16962;48.646;9.026;2024-03-23T11:45:24;8.02;;;2.30;;
30149;SDS011;16962;48.646;9.026;2024-03-23T11:48:14;7.30;;;2.25;;
30149;SDS011;16962;48.646;9.026;2024-03-23T11:51:05;11.35;;;2.47;;
30149;SDS011;16962;48.646;9.026;2024-03-23T11:53:52;7.90;;;2.20;;
30149;SDS011;16962;48.646;9.026;2024-03-23T11:56:39;11.20;;;1.95;;
30149;SDS011;16962;48.646;9.026;2024-03-23T12:02:25;9.07;;;2.42;;
30149;SDS011;16962;48.646;9.026;2024-03-23T12:05:15;9.82;;;3.10;;
30149;SDS011;16962;48.646;9.026;2024-03-23T12:11:27;6.70;;;2.60;;
30149;SDS011;16962;48.646;9.026;2024-03-23T12:14:15;7.93;;;2.97;;
30149;SDS011;16962;48.646;9.026;2024-03-23T12:17:11;9.13;;;2.95;;
30149;SDS011;16962;48.646;9.026;2024-03-23T12:19:58;10.93;;;3.60;;
30149;SDS011;16962;48.646;9.026;2024-03-23T12:22:45;10.02;;;3.58;;
30149;SDS011;16962;48.646;9.026;2024-03-23T12:25:32;9.70;;;3.45;;
30149;SDS011;16962;48.646;9.026;2024-03-23T12:28:20;11.40;;;3.13;;
30149;SDS011;16962;48.646;9.026;2024-03-23T12:31:06;9.77;;;3.35;;
30149;SDS011;16962;48.646;9.026;2024-03-23T12:33:52;13.50;;;3.75;;
30149;SDS011;16962;48.646;9.026;2024-03-23T12:36:39;18.17;;;4.38;;
30149;SDS011;16962;48.646;9.026;2024-03-23T12:39:25;14.50;;;4.88;;
30149;SDS011;16962;48.646;9.026;2024-03-23T12:42:11;13.00;;;4.45;;
30149;SDS011;16962;48.646;9.026;2024-03-23T12:44:58;13.07;;;4.22;;
30149;SDS011;16962;48.646;9.026;2024-03-23T12:47:44;10.45;;;4.13;;
30149;SDS011;16962;48.646;9.026;2024-03-23T12:50:31;8.80;;;3.50;;
30149;SDS011;16962;48.646;9.026;2024-03-23T12:53:17;13.18;;;4.60;;
30149;SDS011;16962;48.646;9.026;2024-03-23T12:56:04;11.95;;;3.83;;
30149;SDS011;16962;48.646;9.026;2024-03-23T12:58:50;15.15;;;4.60;;
30149;SDS011;16962;48.646;9.026;2024-03-23T13:01:37;10.25;;;3.45;;
30149;SDS011;16962;48.646;9.026;2024-03-23T13:04:26;11.98;;;4.10;;
30149;SDS011;16962;48.646;9.026;2024-03-23T13:07:12;13.85;;;5.82;;
30149;SDS011;16962;48.646;9.026;2024-03-23T13:09:59;8.20;;;3.03;;
30149;SDS011;16962;48.646;9.026;2024-03-23T13:12:45;5.22;;;1.80;;
30149;SDS011;16962;48.646;9.026;2024-03-23T13:15:32;2.00;;;1.42;;
30149;SDS011;16962;48.646;9.026;2024-03-23T13:18:18;5.60;;;1.73;;
30149;SDS011;16962;48.646;9.026;2024-03-23T13:21:06;3.40;;;1.42;;
30149;SDS011;16962;48.646;9.026;2024-03-23T13:23:52;10.18;;;3.13;;
30149;SDS011;16962;48.646;9.026;2024-03-23T13:26:38;7.97;;;1.95;;
30149;SDS011;16962;48.646;9.026;2024-03-23T13:29:25;5.32;;;1.63;;
30149;SDS011;16962;48.646;9.026;2024-03-23T13:32:11;4.43;;;1.50;;
30149;SDS011;16962;48.646;9.026;2024-03-23T13:34:58;3.78;;;1.65;;
30149;SDS011;16962;48.646;9.026;2024-03-23T13:37:44;3.75;;;1.20;;
30149;SDS011;16962;48.646;9.026;2024-03-23T13:40:30;3.58;;;1.10;;
30149;SDS011;16962;48.646;9.026;2024-03-23T13:43:17;5.50;;;1.63;;
30149;SDS011;16962;48.646;9.026;2024-03-23T13:46:04;4.20;;;1.80;;
30149;SDS011;16962;48.646;9.026;2024-03-23T13:48:50;5.10;;;1.65;;
30149;SDS011;16962;48.646;9.026;2024-03-23T13:51:37;5.80;;;2.15;;
30149;SDS011;16962;48.646;9.026;2024-03-23T13:54:23;7.35;;;2.20;;
30149;SDS011;16962;48.646;9.026;2024-03-23T13:57:10;5.20;;;2.08;;
30149;SDS011;16962;48.646;9.026;2024-03-23T13:59:57;4.47;;;1.77;;
30149;SDS011;16962;48.646;9.026;2024-03-23T14:02:44;7.65;;;2.28;;
30149;SDS011;16962;48.646;9.026;2024-03-23T14:05:30;5.35;;;2.25;;
30149;SDS011;16962;48.646;9.026;2024-03-23T14:08:20;10.02;;;2.20;;
30149;SDS011;16962;48.646;9.026;2024-03-23T14:11:07;5.57;;;2.13;;
30149;SDS011;16962;48.646;9.026;2024-03-23T14:13:55;8.02;;;2.80;;
30149;SDS011;16962;48.646;9.026;2024-03-23T14:16:41;6.75;;;2.38;;
30149;SDS011;16962;48.646;9.026;2024-03-23T14:19:27;7.53;;;2.70;;
30149;SDS011;16962;48.646;9.026;2024-03-23T14:22:14;8.30;;;2.78;;
30149;SDS011;16962;48.646;9.026;2024-03-23T14:25:01;7.55;;;1.92;;
30149;SDS011;16962;48.646;9.026;2024-03-23T14:27:47;7.88;;;1.98;;
30149;SDS011;16962;48.646;9.026;2024-03-23T14:30:34;7.30;;;1.90;;
30149;SDS011;16962;48.646;9.026;2024-03-23T14:33:21;4.22;;;1.45;;
30149;SDS011;16962;48.646;9.026;2024-03-23T14:36:07;6.55;;;1.30;;
30149;SDS011;16962;48.646;9.026;2024-03-23T14:38:54;4.00;;;1.27;;
30149;SDS011;16962;48.646;9.026;2024-03-23T14:41:40;2.80;;;1.40;;
30149;SDS011;16962;48.646;9.026;2024-03-23T14:44:27;5.47;;;1.45;;
30149;SDS011;16962;48.646;9.026;2024-03-23T14:47:14;3.83;;;1.60;;
30149;SDS011;16962;48.646;9.026;2024-03-23T14:50:03;3.45;;;1.50;;
30149;SDS011;16962;48.646;9.026;2024-03-23T14:52:50;4.07;;;1.58;;
30149;SDS011;16962;48.646;9.026;2024-03-23T14:55:37;3.90;;;1.50;;
30149;SDS011;16962;48.646;9.026;2024-03-23T14:58:23;5.22;;;1.65;;
30149;SDS011;16962;48.646;9.026;2024-03-23T15:01:10;7.57;;;2.15;;
30149;SDS011;16962;48.646;9.026;2024-03-23T15:03:57;6.25;;;2.25;;
30149;SDS011;16962;48.646;9.026;2024-03-23T15:06:43;5.60;;;1.95;;
30149;SDS011;16962;48.646;9.026;2024-03-23T15:09:32;5.75;;;1.83;;
30149;SDS011;16962;48.646;9.026;2024-03-23T15:12:18;7.32;;;2.13;;
30149;SDS011;16962;48.646;9.026;2024-03-23T15:15:05;5.70;;;1.65;;
30149;SDS011;16962;48.646;9.026;2024-03-23T15:17:51;4.97;;;1.80;;
30149;SDS011;16962;48.646;9.026;2024-03-23T15:20:38;2.72;;;1.42;;
30149;SDS011;16962;48.646;9.026;2024-03-23T15:23:25;2.92;;;1.38;;
30149;SDS011;16962;48.646;9.026;2024-03-23T15:26:11;4.80;;;1.63;;
30149;SDS011;16962;48.646;9.026;2024-03-23T15:28:58;4.47;;;1.50;;
30149;SDS011;16962;48.646;9.026;2024-03-23T15:31:44;2.35;;;1.40;;
30149;SDS011;16962;48.646;9.026;2024-03-23T15:34:31;6.60;;;1.58;;
30149;SDS011;16962;48.646;9.026;2024-03-23T15:37:17;3.45;;;1.30;;
30149;SDS011;16962;48.646;9.026;2024-03-23T15:40:04;3.70;;;1.38;;
30149;SDS011;16962;48.646;9.026;2024-03-23T15:42:52;6.85;;;1.65;;
30149;SDS011;16962;48.646;9.026;2024-03-23T15:45:38;8.18;;;2.05;;
30149;SDS011;16962;48.646;9.026;2024-03-23T15:48:24;4.80;;;1.83;;
30149;SDS011;16962;48.646;9.026;2024-03-23T15:51:12;5.85;;;1.77;;
30149;SDS011;16962;48.646;9.026;2024-03-23T15:54:00;3.85;;;1.60;;
30149;SDS011;16962;48.646;9.026;2024-03-23T15:56:46;4.82;;;1.55;;
30149;SDS011;16962;48.646;9.026;2024-03-23T15:59:32;5.97;;;1.42;;
30149;SDS011;16962;48.646;9.026;2024-03-23T16:02:18;4.25;;;1.45;;
30149;SDS011;16962;48.646;9.026;2024-03-23T16:05:05;4.50;;;1.42;;
30149;SDS011;16962;48.646;9.026;2024-03-23T16:07:54;2.90;;;1.52;;
30149;SDS011;16962;48.646;9.026;2024-03-23T16:10:41;4.78;;;1.52;;
30149;SDS011;16962;48.646;9.026;2024-03-23T16:13:28;5.85;;;1.63;;
30149;SDS011;16962;48.646;9.026;2024-03-23T16:16:14;4.57;;;1.70;;
30149;SDS011;16962;48.646;9.026;2024-03-23T16:19:01;7.15;;;2.10;;
30149;SDS011;16962;48.646;9.026;2024-03-23T16:21:48;7.50;;;2.00;;
30149;SDS011;16962;48.646;9.026;2024-03-23T16:24:34;5.10;;;1.75;;
30149;SDS011;16962;48.646;9.026;2024-03-23T16:27:21;3.95;;;1.48;;
30149;SDS011;16962;48.646;9.026;2024-03-23T16:30:07;4.97;;;1.40;;
30149;SDS011;16962;48.646;9.026;2024-03-23T16:32:54;2.75;;;1.77;;
30149;SDS011;16962;48.646;9.026;2024-03-23T16:35:40;3.90;;;1.85;;
30149;SDS011;16962;48.646;9.026;2024-03-23T16:38:27;4.22;;;1.50;;
30149;SDS011;16962;48.646;9.026;2024-03-23T16:41:13;2.85;;;1.50;;
30149;SDS011;16962;48.646;9.026;2024-03-23T16:44:03;5.15;;;1.67;;
30149;SDS011;16962;48.646;9.026;2024-03-23T16:46:50;5.07;;;1.80;;
30149;SDS011;16962;48.646;9.026;2024-03-23T16:49:36;6.13;;;2.60;;
30149;SDS011;16962;48.646;9.026;2024-03-23T16:52:23;4.60;;;2.50;;
30149;SDS011;16962;48.646;9.026;2024-03-23T16:55:09;6.75;;;2.03;;
30149;SDS011;16962;48.646;9.026;2024-03-23T16:57:56;3.63;;;1.65;;
30149;SDS011;16962;48.646;9.026;2024-03-23T17:00:42;6.05;;;2.08;;
30149;SDS011;16962;48.646;9.026;2024-03-23T17:03:28;5.05;;;1.60;;
30149;SDS011;16962;48.646;9.026;2024-03-23T17:06:15;5.82;;;2.10;;
30149;SDS011;16962;48.646;9.026;2024-03-23T17:09:03;7.32;;;1.92;;
30149;SDS011;16962;48.646;9.026;2024-03-23T17:11:51;13.10;;;2.30;;
30149;SDS011;16962;48.646;9.026;2024-03-23T17:14:38;9.88;;;2.60;;
30149;SDS011;16962;48.646;9.026;2024-03-23T17:17:26;5.32;;;2.10;;
30149;SDS011;16962;48.646;9.026;2024-03-23T17:20:13;7.18;;;2.63;;
30149;SDS011;16962;48.646;9.026;2024-03-23T17:23:00;6.60;;;2.63;;
30149;SDS011;16962;48.646;9.026;2024-03-23T17:25:47;6.85;;;2.33;;
30149;SDS011;16962;48.646;9.026;2024-03-23T17:28:33;6.53;;;2.65;;
30149;SDS011;16962;48.646;9.026;2024-03-23T17:31:20;7.75;;;2.25;;
30149;SDS011;16962;48.646;9.026;2024-03-23T17:34:07;4.93;;;2.08;;
30149;SDS011;16962;48.646;9.026;2024-03-23T17:36:53;8.30;;;2.38;;
30149;SDS011;16962;48.646;9.026;2024-03-23T17:39:39;8.52;;;2.63;;
30149;SDS011;16962;48.646;9.026;2024-03-23T17:42:26;5.13;;;2.30;;
30149;SDS011;16962;48.646;9.026;2024-03-23T17:45:12;2.67;;;1.75;;
30149;SDS011;16962;48.646;9.026;2024-03-23T17:48:00;2.35;;;1.30;;
30149;SDS011;16962;48.646;9.026;2024-03-23T17:50:46;2.67;;;1.83;;
30149;SDS011;16962;48.646;9.026;2024-03-23T17:53:38;2.58;;;1.80;;
30149;SDS011;16962;48.646;9.026;2024-03-23T17:56:25;2.20;;;1.20;;
30149;SDS011;16962;48.646;9.026;2024-03-23T17:59:11;3.97;;;1.85;;
30149;SDS011;16962;48.646;9.026;2024-03-23T18:01:58;5.90;;;2.45;;
30149;SDS011;16962;48.646;9.026;2024-03-23T18:04:45;4.32;;;1.60;;